AirNav   Everest Fuels
 
 1083 users online  

0MI1 Lawler Heliport
Oakland, Michigan, USA

GOING TO OAKLAND?


FAA INFORMATION EFFECTIVE 18 JUNE 2020

Location

FAA Identifier: 0MI1
Lat/Long: 42-44-56.6500N 083-07-13.4700W
42-44.944167N 083-07.224500W
42.7490694,-83.1204083
(estimated)
Elevation: 940 ft. / 287 m (estimated)
From city: 4 miles SW of OAKLAND, MI
Time zone: UTC -4 (UTC -5 during Standard Time)
Zip code: 48306

Heliport Operations

Heliport use: Private use. Permission required prior to landing
Activation date: 06/2016
Control tower: no
ARTCC: CLEVELAND CENTER
FSS: LANSING FLIGHT SERVICE STATION
Attendance: 
Wind indicator: yes
Segmented circle: no

Heliport Communications

WX AWOS-3 at VLL (13 nm S): 119.475 (248-288-4649)
WX ASOS at PTK (14 nm W): 125.025 (248-886-8551)

Nearby radio navigation aids

VOR radial/distance  VOR name  Freq  Var
SVMr049/29.2SALEM VORTAC114.3003W
FNTr121/30.5FLINT VORTAC116.9006W
DXOr025/34.0DETROIT VOR/DME113.4006W

 
NDB name  Hdg/Dist  Freq  Var  ID
GROSSE ILE009/38.941907WRYS .-. -.-- ...

Heliport Services

Runway Information

Helipad H1

Dimensions: 40 x 24 ft. / 12 x 7 m
Surface: concrete
Runway edge lights: FLD
Traffic pattern: leftleft

Heliport Ownership and Management from official FAA records

Ownership: Privately-owned
Owner: DAVID M. LAWLER
885 E. GUNN
ROCHESTER, MI 48306
Phone (586) 899-4979
Manager: DAVID M. LAWLER
885 E. GUNN
ROCHESTER, MI 48306
Phone (586) 899-4979

Heliport Operational Statistics

Aircraft based on the field: 1
Helicopters: 1
    

Additional Remarks

FOR CD CTC CLEVELAND ARTCC AT 440-774-0490.

Instrument Procedures

There are no published instrument procedures at 0MI1.

Some nearby airports with instrument procedures:

D98 - Romeo State Airport (7 nm NE)
57D - Ray Community Airport (10 nm E)
KVLL - Oakland/Troy Airport (13 nm S)
KPTK - Oakland County International Airport (14 nm W)
KMTC - Selfridge Air National Guard Base (15 nm SE)
 
Loc | Ops | Rwys | IFR | FBO | Links
Com | Nav | Svcs | Stats | Notes
Aerial photo
No photo
 
Airport distance calculator
Flying to Lawler Heliport? Find the distance to fly.

From to 0MI1

Sunrise and sunset
Times for 12-Jul-2020
 Local
(UTC-4)
 Zulu
(UTC)
Morning civil twilight05:3309:33
Sunrise06:0710:07
Sunset21:0901:09
Evening civil twilight21:4301:43

Current date and time
Zulu (UTC)  12-Jul-2020 18:23:47
Local (UTC-4)  12-Jul-2020 14:23:47
 
METAR
KVLL 
13nm S 
121755Z AUTO 30008KT 10SM SCT050 27/14 A2982 RMK AO2 T02690144 10270 20210
KPTK 
14nm W 
121753Z 31012KT 10SM FEW055 SCT250 25/15 A2981 RMK AO2 SLP088 T02500150 10256 20189 58002
KMTC 
16nm SE 
121756Z 32012KT 10SM BKN049 BKN190 26/16 A2979 RMK AO2A SLP089 T02590161 10266 20210 58001 $
KD95 
20nm N 
121755Z AUTO 33007KT 10SM BKN039 OVC046 26/16 A2983 RMK AO2 T02550160 10256 20192
KDET 
21nm S 
121753Z 33010G16KT 10SM BKN060 27/15 A2980 RMK AO2 SLP087 T02720150 10272 20222 58003
TAF
KPTK 
14nm W 
121734Z 1218/1318 32010KT P6SM BKN045 FM130200 02004KT P6SM SCT080 FM131000 32005KT P6SM SCT250 FM131400 33007KT P6SM BKN050
KMTC 
16nm SE 
121700Z 1217/1323 31009KT 9999 FEW060 BKN250 QNH2976INS BECMG 1300/1301 VRB06KT 9000 -SHRA BKN025 QNH2979INS BECMG 1303/1304 VRB06KT 9999 NSW BKN015 BKN180 QNH2985INS BECMG 1314/1315 34009KT 9999 SCT030 BKN250 QNH2993INS TX26/1221Z TN15/1308Z
NOTAMs
Click for the latest NOTAMs
NOTAMs are issued by the DoD/FAA and will open in a separate window not controlled by AirNav.

 

 
 

Would you like to see your business listed on this page?

 If your business provides an interesting product or service to pilots, flight crews, aircraft, or users of the Lawler Heliport, you should consider listing it here.  To start the listing process, click on the button below
 
Add a business
 

Other Pages about Lawler Heliport

Update a link
 
Copyright © AirNav, LLC. All rights reserved. Privacy Policy  Contact